sensor_id;sensor_type;location;lat;lon;timestamp;P1;durP1;ratioP1;P2;durP2;ratioP2
65045;SDS011;54657;52.022;5.534;2023-06-10T00:00:12;8.25;;;6.38;;
65045;SDS011;54657;52.022;5.534;2023-06-10T00:02:39;6.85;;;6.25;;
65045;SDS011;54657;52.022;5.534;2023-06-10T00:05:06;7.28;;;6.28;;
65045;SDS011;54657;52.022;5.534;2023-06-10T00:07:33;7.18;;;6.47;;
65045;SDS011;54657;52.022;5.534;2023-06-10T00:10:03;6.40;;;5.80;;
65045;SDS011;54657;52.022;5.534;2023-06-10T00:12:31;6.88;;;5.70;;
65045;SDS011;54657;52.022;5.534;2023-06-10T00:15:01;6.10;;;5.60;;
65045;SDS011;54657;52.022;5.534;2023-06-10T00:17:30;6.80;;;6.10;;
65045;SDS011;54657;52.022;5.534;2023-06-10T00:19:57;6.75;;;5.68;;
65045;SDS011;54657;52.022;5.534;2023-06-10T00:22:23;7.05;;;5.75;;
65045;SDS011;54657;52.022;5.534;2023-06-10T00:24:49;9.25;;;6.00;;
65045;SDS011;54657;52.022;5.534;2023-06-10T00:27:15;6.80;;;5.70;;
65045;SDS011;54657;52.022;5.534;2023-06-10T00:29:41;6.20;;;5.63;;
65045;SDS011;54657;52.022;5.534;2023-06-10T00:32:07;6.50;;;5.85;;
65045;SDS011;54657;52.022;5.534;2023-06-10T00:34:33;9.27;;;5.78;;
65045;SDS011;54657;52.022;5.534;2023-06-10T00:36:58;10.05;;;5.80;;
65045;SDS011;54657;52.022;5.534;2023-06-10T00:39:24;6.10;;;5.60;;
65045;SDS011;54657;52.022;5.534;2023-06-10T00:41:50;8.52;;;5.25;;
65045;SDS011;54657;52.022;5.534;2023-06-10T00:44:15;5.82;;;5.03;;
65045;SDS011;54657;52.022;5.534;2023-06-10T00:46:42;6.05;;;5.30;;
65045;SDS011;54657;52.022;5.534;2023-06-10T00:49:08;6.47;;;5.63;;
65045;SDS011;54657;52.022;5.534;2023-06-10T00:51:34;9.82;;;5.90;;
65045;SDS011;54657;52.022;5.534;2023-06-10T00:54:01;5.70;;;5.18;;
65045;SDS011;54657;52.022;5.534;2023-06-10T00:56:28;6.05;;;5.55;;
65045;SDS011;54657;52.022;5.534;2023-06-10T00:58:53;11.00;;;5.93;;
65045;SDS011;54657;52.022;5.534;2023-06-10T01:01:19;7.28;;;5.15;;
65045;SDS011;54657;52.022;5.534;2023-06-10T01:03:45;7.15;;;5.72;;
65045;SDS011;54657;52.022;5.534;2023-06-10T01:11:46;8.18;;;5.13;;
65045;SDS011;54657;52.022;5.534;2023-06-10T01:14:17;6.78;;;5.07;;
65045;SDS011;54657;52.022;5.534;2023-06-10T01:16:43;7.57;;;5.20;;
65045;SDS011;54657;52.022;5.534;2023-06-10T01:19:11;5.70;;;5.20;;
65045;SDS011;54657;52.022;5.534;2023-06-10T01:21:37;9.07;;;5.57;;
65045;SDS011;54657;52.022;5.534;2023-06-10T01:24:04;7.13;;;5.25;;
65045;SDS011;54657;52.022;5.534;2023-06-10T01:26:33;5.63;;;5.10;;
65045;SDS011;54657;52.022;5.534;2023-06-10T01:29:07;5.57;;;5.00;;
65045;SDS011;54657;52.022;5.534;2023-06-10T01:31:41;6.05;;;4.90;;
65045;SDS011;54657;52.022;5.534;2023-06-10T01:34:17;6.85;;;5.38;;
65045;SDS011;54657;52.022;5.534;2023-06-10T01:36:47;6.15;;;5.15;;
65045;SDS011;54657;52.022;5.534;2023-06-10T01:39:14;7.13;;;5.00;;
65045;SDS011;54657;52.022;5.534;2023-06-10T01:41:42;6.95;;;5.47;;
65045;SDS011;54657;52.022;5.534;2023-06-10T01:44:08;5.82;;;4.93;;
65045;SDS011;54657;52.022;5.534;2023-06-10T01:46:35;5.82;;;5.22;;
65045;SDS011;54657;52.022;5.534;2023-06-10T01:49:00;5.55;;;5.00;;
65045;SDS011;54657;52.022;5.534;2023-06-10T01:51:26;7.78;;;4.70;;
65045;SDS011;54657;52.022;5.534;2023-06-10T01:53:51;5.60;;;4.97;;
65045;SDS011;54657;52.022;5.534;2023-06-10T01:56:17;6.35;;;5.00;;
65045;SDS011;54657;52.022;5.534;2023-06-10T01:58:45;5.35;;;4.57;;
65045;SDS011;54657;52.022;5.534;2023-06-10T02:01:11;5.55;;;5.05;;
65045;SDS011;54657;52.022;5.534;2023-06-10T02:03:36;6.80;;;4.80;;
65045;SDS011;54657;52.022;5.534;2023-06-10T02:06:02;7.05;;;4.90;;
65045;SDS011;54657;52.022;5.534;2023-06-10T02:08:28;8.02;;;5.20;;
65045;SDS011;54657;52.022;5.534;2023-06-10T02:10:53;6.97;;;5.30;;
65045;SDS011;54657;52.022;5.534;2023-06-10T02:13:19;7.53;;;5.22;;
65045;SDS011;54657;52.022;5.534;2023-06-10T02:15:45;7.72;;;4.93;;
65045;SDS011;54657;52.022;5.534;2023-06-10T02:18:11;5.28;;;4.75;;
65045;SDS011;54657;52.022;5.534;2023-06-10T02:20:40;5.78;;;5.10;;
65045;SDS011;54657;52.022;5.534;2023-06-10T02:23:06;5.70;;;4.60;;
65045;SDS011;54657;52.022;5.534;2023-06-10T02:25:31;7.97;;;4.65;;
65045;SDS011;54657;52.022;5.534;2023-06-10T02:27:57;5.25;;;4.75;;
65045;SDS011;54657;52.022;5.534;2023-06-10T02:30:22;5.50;;;4.50;;
65045;SDS011;54657;52.022;5.534;2023-06-10T02:32:48;5.47;;;4.95;;
65045;SDS011;54657;52.022;5.534;2023-06-10T02:35:15;9.57;;;5.32;;
65045;SDS011;54657;52.022;5.534;2023-06-10T02:37:42;6.40;;;4.80;;
65045;SDS011;54657;52.022;5.534;2023-06-10T02:40:08;7.25;;;4.90;;
65045;SDS011;54657;52.022;5.534;2023-06-10T02:42:35;6.38;;;4.63;;
65045;SDS011;54657;52.022;5.534;2023-06-10T02:45:01;5.80;;;4.50;;
65045;SDS011;54657;52.022;5.534;2023-06-10T02:47:26;6.32;;;4.88;;
65045;SDS011;54657;52.022;5.534;2023-06-10T02:49:52;7.68;;;4.95;;
65045;SDS011;54657;52.022;5.534;2023-06-10T02:52:17;5.90;;;4.55;;
65045;SDS011;54657;52.022;5.534;2023-06-10T02:54:43;6.25;;;4.80;;
65045;SDS011;54657;52.022;5.534;2023-06-10T02:57:09;5.47;;;4.80;;
65045;SDS011;54657;52.022;5.534;2023-06-10T02:59:35;6.75;;;4.85;;
65045;SDS011;54657;52.022;5.534;2023-06-10T03:02:01;8.43;;;4.68;;
65045;SDS011;54657;52.022;5.534;2023-06-10T03:04:26;11.02;;;5.38;;
65045;SDS011;54657;52.022;5.534;2023-06-10T03:06:54;8.80;;;4.82;;
65045;SDS011;54657;52.022;5.534;2023-06-10T03:09:20;7.20;;;4.93;;
65045;SDS011;54657;52.022;5.534;2023-06-10T03:11:46;7.53;;;5.05;;
65045;SDS011;54657;52.022;5.534;2023-06-10T03:14:11;7.13;;;5.53;;
65045;SDS011;54657;52.022;5.534;2023-06-10T03:16:37;5.30;;;4.78;;
65045;SDS011;54657;52.022;5.534;2023-06-10T03:19:08;7.10;;;5.10;;
65045;SDS011;54657;52.022;5.534;2023-06-10T03:21:34;6.60;;;4.47;;
65045;SDS011;54657;52.022;5.534;2023-06-10T03:24:02;8.25;;;4.60;;
65045;SDS011;54657;52.022;5.534;2023-06-10T03:26:28;7.15;;;5.28;;
65045;SDS011;54657;52.022;5.534;2023-06-10T03:28:53;5.85;;;4.75;;
65045;SDS011;54657;52.022;5.534;2023-06-10T03:31:19;6.57;;;4.72;;
65045;SDS011;54657;52.022;5.534;2023-06-10T03:33:45;6.32;;;4.85;;
65045;SDS011;54657;52.022;5.534;2023-06-10T03:36:10;9.73;;;5.47;;
65045;SDS011;54657;52.022;5.534;2023-06-10T03:38:36;7.82;;;4.68;;
65045;SDS011;54657;52.022;5.534;2023-06-10T03:41:02;6.43;;;4.88;;
65045;SDS011;54657;52.022;5.534;2023-06-10T03:43:27;5.30;;;4.78;;
65045;SDS011;54657;52.022;5.534;2023-06-10T03:45:53;8.35;;;4.85;;
65045;SDS011;54657;52.022;5.534;2023-06-10T03:48:19;6.03;;;4.68;;
65045;SDS011;54657;52.022;5.534;2023-06-10T03:50:44;6.28;;;4.65;;
65045;SDS011;54657;52.022;5.534;2023-06-10T03:53:12;7.65;;;4.78;;
65045;SDS011;54657;52.022;5.534;2023-06-10T03:55:38;5.35;;;4.75;;
65045;SDS011;54657;52.022;5.534;2023-06-10T03:58:03;5.75;;;4.43;;
65045;SDS011;54657;52.022;5.534;2023-06-10T04:00:29;6.72;;;5.00;;
65045;SDS011;54657;52.022;5.534;2023-06-10T04:02:55;8.05;;;5.25;;
65045;SDS011;54657;52.022;5.534;2023-06-10T04:05:23;6.32;;;4.93;;
65045;SDS011;54657;52.022;5.534;2023-06-10T04:07:48;9.85;;;5.07;;
65045;SDS011;54657;52.022;5.534;2023-06-10T04:10:15;7.15;;;5.07;;
65045;SDS011;54657;52.022;5.534;2023-06-10T04:12:41;5.97;;;4.88;;
65045;SDS011;54657;52.022;5.534;2023-06-10T04:15:07;5.50;;;4.95;;
65045;SDS011;54657;52.022;5.534;2023-06-10T04:17:33;8.13;;;5.10;;
65045;SDS011;54657;52.022;5.534;2023-06-10T04:19:59;5.68;;;4.55;;
65045;SDS011;54657;52.022;5.534;2023-06-10T04:22:25;11.30;;;4.97;;
65045;SDS011;54657;52.022;5.534;2023-06-10T04:24:51;6.72;;;4.55;;
65045;SDS011;54657;52.022;5.534;2023-06-10T04:27:17;5.80;;;5.20;;
65045;SDS011;54657;52.022;5.534;2023-06-10T04:29:43;5.85;;;4.18;;
65045;SDS011;54657;52.022;5.534;2023-06-10T04:32:08;8.38;;;4.93;;
65045;SDS011;54657;52.022;5.534;2023-06-10T04:34:34;5.18;;;4.32;;
65045;SDS011;54657;52.022;5.534;2023-06-10T04:37:00;6.15;;;5.03;;
65045;SDS011;54657;52.022;5.534;2023-06-10T04:39:25;5.60;;;4.55;;
65045;SDS011;54657;52.022;5.534;2023-06-10T04:41:51;8.27;;;4.95;;
65045;SDS011;54657;52.022;5.534;2023-06-10T04:44:17;6.75;;;4.90;;
65045;SDS011;54657;52.022;5.534;2023-06-10T04:46:43;7.80;;;4.53;;
65045;SDS011;54657;52.022;5.534;2023-06-10T04:49:09;7.72;;;4.53;;
65045;SDS011;54657;52.022;5.534;2023-06-10T04:51:35;7.43;;;4.60;;
65045;SDS011;54657;52.022;5.534;2023-06-10T04:54:00;6.97;;;5.07;;
65045;SDS011;54657;52.022;5.534;2023-06-10T04:56:29;8.38;;;4.63;;
65045;SDS011;54657;52.022;5.534;2023-06-10T04:58:56;9.55;;;4.88;;
65045;SDS011;54657;52.022;5.534;2023-06-10T05:01:22;6.60;;;4.45;;
65045;SDS011;54657;52.022;5.534;2023-06-10T05:03:48;8.75;;;5.00;;
65045;SDS011;54657;52.022;5.534;2023-06-10T05:06:13;7.47;;;4.90;;
65045;SDS011;54657;52.022;5.534;2023-06-10T05:08:39;6.05;;;4.95;;
65045;SDS011;54657;52.022;5.534;2023-06-10T05:11:05;8.82;;;4.88;;
65045;SDS011;54657;52.022;5.534;2023-06-10T05:13:31;7.05;;;5.00;;
65045;SDS011;54657;52.022;5.534;2023-06-10T05:15:57;9.90;;;4.82;;
65045;SDS011;54657;52.022;5.534;2023-06-10T05:18:23;6.90;;;4.93;;
65045;SDS011;54657;52.022;5.534;2023-06-10T05:20:49;5.50;;;4.40;;
65045;SDS011;54657;52.022;5.534;2023-06-10T05:23:14;7.18;;;4.80;;
65045;SDS011;54657;52.022;5.534;2023-06-10T05:25:40;6.80;;;4.75;;
65045;SDS011;54657;52.022;5.534;2023-06-10T05:28:06;8.50;;;4.65;;
65045;SDS011;54657;52.022;5.534;2023-06-10T05:30:35;10.93;;;5.03;;
65045;SDS011;54657;52.022;5.534;2023-06-10T05:33:01;5.78;;;4.53;;
65045;SDS011;54657;52.022;5.534;2023-06-10T05:35:28;6.65;;;5.22;;
65045;SDS011;54657;52.022;5.534;2023-06-10T05:37:53;6.88;;;4.70;;
65045;SDS011;54657;52.022;5.534;2023-06-10T05:40:19;6.90;;;4.93;;
65045;SDS011;54657;52.022;5.534;2023-06-10T05:42:45;9.75;;;4.93;;
65045;SDS011;54657;52.022;5.534;2023-06-10T05:45:10;6.97;;;4.65;;
65045;SDS011;54657;52.022;5.534;2023-06-10T05:47:36;6.22;;;4.53;;
65045;SDS011;54657;52.022;5.534;2023-06-10T05:50:02;6.93;;;4.80;;
65045;SDS011;54657;52.022;5.534;2023-06-10T05:52:31;9.02;;;5.43;;
65045;SDS011;54657;52.022;5.534;2023-06-10T05:55:01;7.20;;;4.78;;
65045;SDS011;54657;52.022;5.534;2023-06-10T05:57:30;6.47;;;4.47;;
65045;SDS011;54657;52.022;5.534;2023-06-10T05:59:55;6.43;;;4.70;;
65045;SDS011;54657;52.022;5.534;2023-06-10T06:02:21;9.02;;;4.60;;
65045;SDS011;54657;52.022;5.534;2023-06-10T06:04:47;9.52;;;5.13;;
65045;SDS011;54657;52.022;5.534;2023-06-10T06:07:13;7.70;;;5.07;;
65045;SDS011;54657;52.022;5.534;2023-06-10T06:09:39;9.25;;;4.60;;
65045;SDS011;54657;52.022;5.534;2023-06-10T06:12:04;6.63;;;4.68;;
65045;SDS011;54657;52.022;5.534;2023-06-10T06:14:32;7.30;;;4.85;;
65045;SDS011;54657;52.022;5.534;2023-06-10T06:17:01;6.57;;;4.75;;
65045;SDS011;54657;52.022;5.534;2023-06-10T06:19:27;7.78;;;4.95;;
65045;SDS011;54657;52.022;5.534;2023-06-10T06:21:53;6.28;;;4.40;;
65045;SDS011;54657;52.022;5.534;2023-06-10T06:24:19;8.95;;;5.18;;
65045;SDS011;54657;52.022;5.534;2023-06-10T06:26:44;7.35;;;5.50;;
65045;SDS011;54657;52.022;5.534;2023-06-10T06:29:10;8.10;;;5.05;;
65045;SDS011;54657;52.022;5.534;2023-06-10T06:31:36;7.90;;;4.95;;
65045;SDS011;54657;52.022;5.534;2023-06-10T06:34:01;6.38;;;4.50;;
65045;SDS011;54657;52.022;5.534;2023-06-10T06:36:27;6.50;;;5.03;;
65045;SDS011;54657;52.022;5.534;2023-06-10T06:38:53;8.10;;;4.45;;
65045;SDS011;54657;52.022;5.534;2023-06-10T06:41:18;6.47;;;5.03;;
65045;SDS011;54657;52.022;5.534;2023-06-10T06:43:44;6.95;;;4.65;;
65045;SDS011;54657;52.022;5.534;2023-06-10T06:46:10;5.22;;;4.43;;
65045;SDS011;54657;52.022;5.534;2023-06-10T06:48:35;7.60;;;4.95;;
65045;SDS011;54657;52.022;5.534;2023-06-10T06:51:01;6.78;;;5.00;;
65045;SDS011;54657;52.022;5.534;2023-06-10T06:53:26;5.72;;;4.75;;
65045;SDS011;54657;52.022;5.534;2023-06-10T06:55:52;11.15;;;5.20;;
65045;SDS011;54657;52.022;5.534;2023-06-10T06:58:18;6.90;;;4.78;;
65045;SDS011;54657;52.022;5.534;2023-06-10T07:00:44;8.25;;;5.13;;
65045;SDS011;54657;52.022;5.534;2023-06-10T07:03:09;6.78;;;4.78;;
65045;SDS011;54657;52.022;5.534;2023-06-10T07:05:36;4.72;;;4.32;;
65045;SDS011;54657;52.022;5.534;2023-06-10T07:08:01;5.50;;;4.22;;
65045;SDS011;54657;52.022;5.534;2023-06-10T07:10:28;7.47;;;4.40;;
65045;SDS011;54657;52.022;5.534;2023-06-10T07:12:53;7.80;;;4.70;;
65045;SDS011;54657;52.022;5.534;2023-06-10T07:15:19;5.30;;;4.63;;
65045;SDS011;54657;52.022;5.534;2023-06-10T07:17:45;7.75;;;4.47;;
65045;SDS011;54657;52.022;5.534;2023-06-10T07:20:10;6.50;;;4.63;;
65045;SDS011;54657;52.022;5.534;2023-06-10T07:22:37;5.63;;;4.63;;
65045;SDS011;54657;52.022;5.534;2023-06-10T07:25:04;6.13;;;4.68;;
65045;SDS011;54657;52.022;5.534;2023-06-10T07:27:30;9.02;;;4.60;;
65045;SDS011;54657;52.022;5.534;2023-06-10T07:29:55;5.25;;;4.20;;
65045;SDS011;54657;52.022;5.534;2023-06-10T07:32:21;7.00;;;4.10;;
65045;SDS011;54657;52.022;5.534;2023-06-10T07:34:48;5.55;;;4.70;;
65045;SDS011;54657;52.022;5.534;2023-06-10T07:37:14;6.03;;;4.72;;
65045;SDS011;54657;52.022;5.534;2023-06-10T07:39:40;5.00;;;4.50;;
65045;SDS011;54657;52.022;5.534;2023-06-10T07:42:06;7.97;;;5.13;;
65045;SDS011;54657;52.022;5.534;2023-06-10T07:44:32;6.65;;;4.80;;
65045;SDS011;54657;52.022;5.534;2023-06-10T07:46:57;4.80;;;4.30;;
65045;SDS011;54657;52.022;5.534;2023-06-10T07:49:23;7.60;;;4.32;;
65045;SDS011;54657;52.022;5.534;2023-06-10T07:51:49;5.95;;;4.32;;
65045;SDS011;54657;52.022;5.534;2023-06-10T07:54:15;7.55;;;4.45;;
65045;SDS011;54657;52.022;5.534;2023-06-10T07:56:41;4.85;;;4.35;;
65045;SDS011;54657;52.022;5.534;2023-06-10T07:59:07;10.70;;;4.80;;
65045;SDS011;54657;52.022;5.534;2023-06-10T08:01:32;6.20;;;4.43;;
65045;SDS011;54657;52.022;5.534;2023-06-10T08:03:58;6.55;;;4.72;;
65045;SDS011;54657;52.022;5.534;2023-06-10T08:06:24;5.60;;;4.53;;
65045;SDS011;54657;52.022;5.534;2023-06-10T08:08:49;5.45;;;4.38;;
65045;SDS011;54657;52.022;5.534;2023-06-10T08:11:15;6.03;;;4.85;;
65045;SDS011;54657;52.022;5.534;2023-06-10T08:13:40;7.18;;;4.65;;
65045;SDS011;54657;52.022;5.534;2023-06-10T08:16:06;7.50;;;4.68;;
65045;SDS011;54657;52.022;5.534;2023-06-10T08:18:32;6.22;;;4.68;;
65045;SDS011;54657;52.022;5.534;2023-06-10T08:20:58;5.97;;;4.63;;
65045;SDS011;54657;52.022;5.534;2023-06-10T08:23:24;6.05;;;4.88;;
65045;SDS011;54657;52.022;5.534;2023-06-10T08:25:50;6.63;;;4.40;;
65045;SDS011;54657;52.022;5.534;2023-06-10T08:28:16;6.57;;;4.40;;
65045;SDS011;54657;52.022;5.534;2023-06-10T08:30:41;7.85;;;4.85;;
65045;SDS011;54657;52.022;5.534;2023-06-10T08:33:07;4.95;;;4.32;;
65045;SDS011;54657;52.022;5.534;2023-06-10T08:35:33;7.25;;;4.45;;
65045;SDS011;54657;52.022;5.534;2023-06-10T08:37:59;5.65;;;4.47;;
65045;SDS011;54657;52.022;5.534;2023-06-10T08:40:24;6.63;;;4.30;;
65045;SDS011;54657;52.022;5.534;2023-06-10T08:45:21;6.78;;;4.00;;
65045;SDS011;54657;52.022;5.534;2023-06-10T08:47:49;5.55;;;4.20;;
65045;SDS011;54657;52.022;5.534;2023-06-10T08:50:18;6.20;;;4.55;;
65045;SDS011;54657;52.022;5.534;2023-06-10T08:52:44;8.38;;;4.50;;
65045;SDS011;54657;52.022;5.534;2023-06-10T08:55:14;5.03;;;4.35;;
65045;SDS011;54657;52.022;5.534;2023-06-10T08:57:44;4.57;;;4.17;;
65045;SDS011;54657;52.022;5.534;2023-06-10T09:00:13;6.22;;;4.30;;
65045;SDS011;54657;52.022;5.534;2023-06-10T09:02:39;5.65;;;4.65;;
65045;SDS011;54657;52.022;5.534;2023-06-10T09:05:05;7.28;;;4.10;;
65045;SDS011;54657;52.022;5.534;2023-06-10T09:07:31;4.75;;;4.03;;
65045;SDS011;54657;52.022;5.534;2023-06-10T09:09:59;6.38;;;4.30;;
65045;SDS011;54657;52.022;5.534;2023-06-10T09:12:28;6.18;;;4.38;;
65045;SDS011;54657;52.022;5.534;2023-06-10T09:14:55;6.05;;;4.10;;
65045;SDS011;54657;52.022;5.534;2023-06-10T09:17:20;5.82;;;4.18;;
65045;SDS011;54657;52.022;5.534;2023-06-10T09:19:47;5.65;;;4.35;;
65045;SDS011;54657;52.022;5.534;2023-06-10T09:22:14;4.55;;;4.10;;
65045;SDS011;54657;52.022;5.534;2023-06-10T09:24:39;5.82;;;4.32;;
65045;SDS011;54657;52.022;5.534;2023-06-10T09:27:07;5.88;;;4.10;;
65045;SDS011;54657;52.022;5.534;2023-06-10T09:32:19;4.95;;;3.90;;
65045;SDS011;54657;52.022;5.534;2023-06-10T09:34:45;6.03;;;4.28;;
65045;SDS011;54657;52.022;5.534;2023-06-10T09:37:11;6.45;;;4.80;;
65045;SDS011;54657;52.022;5.534;2023-06-10T09:39:38;6.97;;;4.18;;
65045;SDS011;54657;52.022;5.534;2023-06-10T09:42:18;7.82;;;4.40;;
65045;SDS011;54657;52.022;5.534;2023-06-10T09:44:51;4.70;;;4.30;;
65045;SDS011;54657;52.022;5.534;2023-06-10T09:47:23;7.45;;;4.30;;
65045;SDS011;54657;52.022;5.534;2023-06-10T09:49:49;4.55;;;4.13;;
65045;SDS011;54657;52.022;5.534;2023-06-10T09:52:25;6.40;;;4.18;;
65045;SDS011;54657;52.022;5.534;2023-06-10T09:54:52;7.13;;;4.47;;
65045;SDS011;54657;52.022;5.534;2023-06-10T09:57:21;5.90;;;4.20;;
65045;SDS011;54657;52.022;5.534;2023-06-10T09:59:47;4.97;;;4.00;;
65045;SDS011;54657;52.022;5.534;2023-06-10T10:02:17;4.50;;;4.10;;
65045;SDS011;54657;52.022;5.534;2023-06-10T10:04:46;5.38;;;4.28;;
65045;SDS011;54657;52.022;5.534;2023-06-10T10:07:12;4.88;;;4.10;;
65045;SDS011;54657;52.022;5.534;2023-06-10T10:09:39;5.35;;;4.32;;
65045;SDS011;54657;52.022;5.534;2023-06-10T10:12:09;4.03;;;3.70;;
65045;SDS011;54657;52.022;5.534;2023-06-10T10:14:37;4.88;;;4.20;;
65045;SDS011;54657;52.022;5.534;2023-06-10T10:17:04;5.43;;;4.68;;
65045;SDS011;54657;52.022;5.534;2023-06-10T10:19:37;5.32;;;4.28;;
65045;SDS011;54657;52.022;5.534;2023-06-10T10:22:10;4.75;;;4.30;;
65045;SDS011;54657;52.022;5.534;2023-06-10T10:24:49;4.73;;;4.30;;
65045;SDS011;54657;52.022;5.534;2023-06-10T10:27:59;6.82;;;4.97;;
65045;SDS011;54657;52.022;5.534;2023-06-10T10:30:05;5.00;;;3.90;;
65045;SDS011;54657;52.022;5.534;2023-06-10T10:32:38;4.47;;;4.07;;
65045;SDS011;54657;52.022;5.534;2023-06-10T10:35:08;4.20;;;3.80;;
65045;SDS011;54657;52.022;5.534;2023-06-10T10:37:51;7.30;;;4.35;;
65045;SDS011;54657;52.022;5.534;2023-06-10T10:40:18;4.63;;;4.22;;
65045;SDS011;54657;52.022;5.534;2023-06-10T10:42:45;4.20;;;3.80;;
65045;SDS011;54657;52.022;5.534;2023-06-10T10:45:13;5.05;;;4.25;;
65045;SDS011;54657;52.022;5.534;2023-06-10T10:47:39;5.70;;;4.50;;
65045;SDS011;54657;52.022;5.534;2023-06-10T10:50:12;4.82;;;4.18;;
65045;SDS011;54657;52.022;5.534;2023-06-10T10:55:21;5.00;;;4.30;;
65045;SDS011;54657;52.022;5.534;2023-06-10T10:57:58;4.70;;;4.30;;
65045;SDS011;54657;52.022;5.534;2023-06-10T11:00:32;5.38;;;4.20;;
65045;SDS011;54657;52.022;5.534;2023-06-10T11:05:39;4.45;;;4.05;;
65045;SDS011;54657;52.022;5.534;2023-06-10T11:08:07;4.65;;;4.25;;
65045;SDS011;54657;52.022;5.534;2023-06-10T11:13:05;5.07;;;4.38;;
65045;SDS011;54657;52.022;5.534;2023-06-10T11:15:38;4.15;;;3.80;;
65045;SDS011;54657;52.022;5.534;2023-06-10T11:31:23;4.32;;;3.97;;
65045;SDS011;54657;52.022;5.534;2023-06-10T11:33:54;6.35;;;4.53;;
65045;SDS011;54657;52.022;5.534;2023-06-10T11:36:24;4.80;;;4.40;;
65045;SDS011;54657;52.022;5.534;2023-06-10T11:39:01;6.57;;;4.30;;
65045;SDS011;54657;52.022;5.534;2023-06-10T11:41:28;6.90;;;4.38;;
65045;SDS011;54657;52.022;5.534;2023-06-10T11:43:56;5.18;;;4.70;;
65045;SDS011;54657;52.022;5.534;2023-06-10T11:46:26;4.70;;;4.30;;
65045;SDS011;54657;52.022;5.534;2023-06-10T11:48:56;4.70;;;4.30;;
65045;SDS011;54657;52.022;5.534;2023-06-10T11:51:28;5.65;;;4.38;;
65045;SDS011;54657;52.022;5.534;2023-06-10T11:53:57;4.80;;;4.40;;
65045;SDS011;54657;52.022;5.534;2023-06-10T11:56:23;4.60;;;4.20;;
65045;SDS011;54657;52.022;5.534;2023-06-10T11:58:54;5.00;;;4.30;;
65045;SDS011;54657;52.022;5.534;2023-06-10T12:03:56;6.25;;;4.28;;
65045;SDS011;54657;52.022;5.534;2023-06-10T12:06:23;4.55;;;4.07;;
65045;SDS011;54657;52.022;5.534;2023-06-10T12:08:48;5.70;;;4.40;;
65045;SDS011;54657;52.022;5.534;2023-06-10T12:11:14;4.47;;;4.07;;
65045;SDS011;54657;52.022;5.534;2023-06-10T12:13:45;4.22;;;3.90;;
65045;SDS011;54657;52.022;5.534;2023-06-10T12:16:14;5.28;;;4.38;;
65045;SDS011;54657;52.022;5.534;2023-06-10T12:18:42;4.35;;;3.95;;
65045;SDS011;54657;52.022;5.534;2023-06-10T12:21:18;4.35;;;3.95;;
65045;SDS011;54657;52.022;5.534;2023-06-10T12:23:59;4.60;;;4.15;;
65045;SDS011;54657;52.022;5.534;2023-06-10T12:26:34;4.72;;;4.32;;
65045;SDS011;54657;52.022;5.534;2023-06-10T12:31:57;5.65;;;3.80;;
65045;SDS011;54657;52.022;5.534;2023-06-10T12:34:35;5.22;;;3.92;;
65045;SDS011;54657;52.022;5.534;2023-06-10T12:37:03;4.50;;;4.07;;
65045;SDS011;54657;52.022;5.534;2023-06-10T12:39:31;5.95;;;4.15;;
65045;SDS011;54657;52.022;5.534;2023-06-10T12:41:57;4.75;;;4.35;;
65045;SDS011;54657;52.022;5.534;2023-06-10T12:44:33;5.00;;;4.50;;
65045;SDS011;54657;52.022;5.534;2023-06-10T12:47:06;7.50;;;3.97;;
65045;SDS011;54657;52.022;5.534;2023-06-10T12:49:33;4.50;;;4.10;;
65045;SDS011;54657;52.022;5.534;2023-06-10T12:52:00;5.20;;;4.70;;
65045;SDS011;54657;52.022;5.534;2023-06-10T12:54:26;5.72;;;5.22;;
65045;SDS011;54657;52.022;5.534;2023-06-10T12:56:51;6.88;;;5.10;;
65045;SDS011;54657;52.022;5.534;2023-06-10T12:59:18;5.32;;;4.82;;
65045;SDS011;54657;52.022;5.534;2023-06-10T13:01:44;5.57;;;4.63;;
65045;SDS011;54657;52.022;5.534;2023-06-10T13:04:15;5.32;;;4.63;;
65045;SDS011;54657;52.022;5.534;2023-06-10T13:06:42;6.00;;;4.50;;
65045;SDS011;54657;52.022;5.534;2023-06-10T13:09:07;4.75;;;4.25;;
65045;SDS011;54657;52.022;5.534;2023-06-10T13:11:33;6.00;;;4.80;;
65045;SDS011;54657;52.022;5.534;2023-06-10T13:14:00;4.88;;;4.47;;
65045;SDS011;54657;52.022;5.534;2023-06-10T13:16:27;6.05;;;4.43;;
65045;SDS011;54657;52.022;5.534;2023-06-10T13:18:53;7.57;;;4.57;;
65045;SDS011;54657;52.022;5.534;2023-06-10T13:21:19;6.85;;;4.30;;
65045;SDS011;54657;52.022;5.534;2023-06-10T13:23:45;5.65;;;4.03;;
65045;SDS011;54657;52.022;5.534;2023-06-10T13:26:13;4.82;;;4.18;;
65045;SDS011;54657;52.022;5.534;2023-06-10T13:28:39;6.60;;;4.55;;
65045;SDS011;54657;52.022;5.534;2023-06-10T13:31:05;4.95;;;4.43;;
65045;SDS011;54657;52.022;5.534;2023-06-10T13:33:30;4.90;;;4.25;;
65045;SDS011;54657;52.022;5.534;2023-06-10T13:35:56;4.80;;;4.40;;
65045;SDS011;54657;52.022;5.534;2023-06-10T13:38:23;4.70;;;4.32;;
65045;SDS011;54657;52.022;5.534;2023-06-10T13:40:48;4.57;;;4.28;;
65045;SDS011;54657;52.022;5.534;2023-06-10T13:43:15;5.03;;;4.53;;
65045;SDS011;54657;52.022;5.534;2023-06-10T13:45:41;5.50;;;4.38;;
65045;SDS011;54657;52.022;5.534;2023-06-10T13:48:07;5.47;;;4.32;;
65045;SDS011;54657;52.022;5.534;2023-06-10T13:50:33;6.03;;;4.30;;
65045;SDS011;54657;52.022;5.534;2023-06-10T13:52:59;4.57;;;4.15;;
65045;SDS011;54657;52.022;5.534;2023-06-10T13:55:24;6.53;;;4.15;;
65045;SDS011;54657;52.022;5.534;2023-06-10T13:57:50;4.70;;;4.25;;
65045;SDS011;54657;52.022;5.534;2023-06-10T14:00:16;4.65;;;4.25;;
65045;SDS011;54657;52.022;5.534;2023-06-10T14:02:42;5.60;;;4.35;;
65045;SDS011;54657;52.022;5.534;2023-06-10T14:05:08;5.47;;;4.10;;
65045;SDS011;54657;52.022;5.534;2023-06-10T14:07:34;4.30;;;4.00;;
65045;SDS011;54657;52.022;5.534;2023-06-10T14:10:00;6.07;;;4.60;;
65045;SDS011;54657;52.022;5.534;2023-06-10T14:12:25;4.93;;;4.38;;
65045;SDS011;54657;52.022;5.534;2023-06-10T14:14:51;6.07;;;4.00;;
65045;SDS011;54657;52.022;5.534;2023-06-10T14:17:17;5.22;;;4.18;;
65045;SDS011;54657;52.022;5.534;2023-06-10T14:19:42;4.47;;;3.88;;
65045;SDS011;54657;52.022;5.534;2023-06-10T14:22:08;4.45;;;4.10;;
65045;SDS011;54657;52.022;5.534;2023-06-10T14:24:34;5.78;;;4.45;;
65045;SDS011;54657;52.022;5.534;2023-06-10T14:27:01;4.85;;;4.10;;
65045;SDS011;54657;52.022;5.534;2023-06-10T14:29:26;4.72;;;4.30;;
65045;SDS011;54657;52.022;5.534;2023-06-10T14:31:54;4.25;;;3.85;;
65045;SDS011;54657;52.022;5.534;2023-06-10T14:34:20;4.95;;;4.28;;
65045;SDS011;54657;52.022;5.534;2023-06-10T14:36:46;4.90;;;4.40;;
65045;SDS011;54657;52.022;5.534;2023-06-10T14:39:12;5.25;;;4.47;;
65045;SDS011;54657;52.022;5.534;2023-06-10T14:41:37;4.70;;;4.03;;
65045;SDS011;54657;52.022;5.534;2023-06-10T14:44:03;4.72;;;4.32;;
65045;SDS011;54657;52.022;5.534;2023-06-10T14:46:29;4.60;;;4.20;;
65045;SDS011;54657;52.022;5.534;2023-06-10T14:48:54;6.25;;;4.22;;
65045;SDS011;54657;52.022;5.534;2023-06-10T14:51:20;5.07;;;4.13;;
65045;SDS011;54657;52.022;5.534;2023-06-10T14:53:46;4.28;;;3.88;;
65045;SDS011;54657;52.022;5.534;2023-06-10T14:56:11;4.30;;;3.90;;
65045;SDS011;54657;52.022;5.534;2023-06-10T14:58:37;4.53;;;3.95;;
65045;SDS011;54657;52.022;5.534;2023-06-10T15:01:03;4.78;;;4.43;;
65045;SDS011;54657;52.022;5.534;2023-06-10T15:03:29;4.47;;;4.07;;
65045;SDS011;54657;52.022;5.534;2023-06-10T15:05:54;5.10;;;3.92;;
65045;SDS011;54657;52.022;5.534;2023-06-10T15:08:20;4.78;;;4.28;;
65045;SDS011;54657;52.022;5.534;2023-06-10T15:10:46;4.15;;;3.80;;
65045;SDS011;54657;52.022;5.534;2023-06-10T15:13:13;9.43;;;4.07;;
65045;SDS011;54657;52.022;5.534;2023-06-10T15:15:39;4.30;;;3.90;;
65045;SDS011;54657;52.022;5.534;2023-06-10T15:18:04;4.78;;;4.28;;
65045;SDS011;54657;52.022;5.534;2023-06-10T15:20:30;5.30;;;4.80;;
65045;SDS011;54657;52.022;5.534;2023-06-10T15:22:55;5.00;;;4.50;;